Time;durP1;ratioP1;P1;durP2;ratioP2;P2;SDS_P1;SDS_P2;PMS_P1;PMS_P2;Temp;Humidity;BMP_temperature;BMP_pressure;BME280_temperature;BME280_humidity;BME280_pressure;Samples;Min_cycle;Max_cycle;Signal;HPM_P1;HPM_P2
2022/05/01 07:08:10;;;;;;;14.20;4.60;;;;;;;18.12;97.54;100640.69;5067849;28;20399;-70
2022/05/01 07:10:35;;;;;;;6.20;4.18;;;;;;;18.39;96.08;100610.19;5067858;28;20047;-67
2022/05/01 07:13:00;;;;;;;4.63;3.65;;;;;;;18.78;96.92;100651.16;5068790;28;20021;-67
2022/05/01 07:15:26;;;;;;;6.65;4.25;;;;;;;18.80;93.24;100644.19;5069388;28;20056;-67
2022/05/01 07:17:51;;;;;;;6.35;4.50;;;;;;;19.21;92.77;100624.00;5069515;28;20112;-69
2022/05/01 07:20:17;;;;;;;7.57;4.20;;;;;;;19.55;95.21;100641.97;5068331;28;20037;-69
2022/05/01 07:22:42;;;;;;;16.25;4.90;;;;;;;19.09;90.73;100624.66;5067316;28;20028;-70
2022/05/01 07:25:08;;;;;;;6.50;3.40;;;;;;;19.12;90.43;100658.00;5066117;28;20130;-70
2022/05/01 07:27:33;;;;;;;5.07;3.40;;;;;;;19.84;87.53;100623.13;5066671;28;20024;-70
2022/05/01 07:29:59;;;;;;;6.90;3.67;;;;;;;17.73;95.64;100593.69;5067224;28;20111;-70
2022/05/01 07:32:24;;;;;;;5.55;4.10;;;;;;;18.70;98.22;100622.38;5067389;28;20414;-70
2022/05/01 07:34:50;;;;;;;5.80;3.90;;;;;;;19.28;91.18;100622.75;5067250;28;20434;-70
2022/05/01 07:37:16;;;;;;;6.55;3.83;;;;;;;19.11;90.81;100572.09;5066400;28;20032;-70
2022/05/01 07:39:42;;;;;;;4.93;3.20;;;;;;;19.32;82.45;100652.63;5058306;28;20639;-70
2022/05/01 07:42:08;;;;;;;3.70;2.97;;;;;;;19.64;74.96;100662.94;5045484;28;20132;-70
2022/05/01 07:44:33;;;;;;;4.20;3.20;;;;;;;19.88;74.59;100611.72;5046636;28;20025;-69
2022/05/01 07:46:59;;;;;;;5.70;3.30;;;;;;;20.00;72.25;100585.22;5045241;28;20033;-70
2022/05/01 07:49:25;;;;;;;5.07;3.08;;;;;;;20.74;70.14;100655.78;5046377;28;20029;-70
2022/05/01 07:51:50;;;;;;;9.32;3.10;;;;;;;20.54;69.63;100643.22;5045174;28;20041;-70
2022/05/01 07:54:16;;;;;;;3.88;2.40;;;;;;;20.49;68.10;100643.47;5046002;28;20049;-69
2022/05/01 07:56:41;;;;;;;5.82;2.38;;;;;;;19.96;70.16;100666.34;5045875;28;20025;-70
2022/05/01 07:59:08;;;;;;;4.35;2.03;;;;;;;20.12;66.38;100599.16;5045609;28;20522;-70
2022/05/01 08:01:34;;;;;;;4.28;2.47;;;;;;;19.71;67.58;100591.16;5046064;28;20032;-70
2022/05/01 08:06:43;;;;;;;4.47;2.45;;;;;;;19.76;67.91;100607.22;5045902;28;20096;-70
2022/05/01 08:09:08;;;;;;;4.38;2.60;;;;;;;19.69;67.28;100668.66;5045225;28;20116;-70
2022/05/01 08:11:34;;;;;;;5.00;2.35;;;;;;;21.60;64.54;100635.00;5046542;28;20029;-70
2022/05/01 08:13:59;;;;;;;5.97;2.78;;;;;;;20.19;63.95;100642.66;5046731;28;20051;-70
2022/05/01 08:16:25;;;;;;;7.95;2.72;;;;;;;21.95;61.30;100606.88;5046726;28;20396;-69
2022/05/01 08:21:45;;;;;;;2.85;2.28;;;;;;;20.87;60.38;100579.19;5013672;28;20053;-70
2022/05/01 08:24:10;;;;;;;3.85;2.70;;;;;;;20.22;61.71;100642.50;5033370;28;20426;-70
2022/05/01 08:26:36;;;;;;;4.13;2.50;;;;;;;20.94;63.43;100574.44;5033180;28;20056;-69
2022/05/01 08:29:02;;;;;;;3.42;2.50;;;;;;;21.28;62.54;100590.44;5032878;28;20057;-71
2022/05/01 08:31:28;;;;;;;2.90;2.60;;;;;;;20.85;61.24;100580.19;5032970;28;20061;-69
2022/05/01 08:33:54;;;;;;;5.13;3.95;;;;;;;21.11;60.81;100629.44;5033365;28;20030;-69
2022/05/01 08:36:20;;;;;;;3.40;2.60;;;;;;;21.24;59.59;100635.53;5032995;28;20040;-69
2022/05/01 08:38:45;;;;;;;3.55;2.70;;;;;;;20.24;61.08;100585.59;5033016;28;20037;-69
2022/05/01 08:41:11;;;;;;;4.18;3.03;;;;;;;20.48;61.99;100644.38;5033235;28;20030;-69
2022/05/01 08:43:37;;;;;;;7.30;3.60;;;;;;;20.25;62.12;100613.91;5032588;28;20049;-69
2022/05/01 08:46:31;;;;;;;11.93;5.35;;;;;;;21.54;60.55;100615.50;5031302;28;20056;-70
2022/05/01 08:49:01;;;;;;;3.97;2.67;;;;;;;20.55;60.65;100643.13;5031395;28;20033;-69
2022/05/01 08:51:30;;;;;;;4.85;2.60;;;;;;;21.79;60.09;100622.53;5032892;28;20070;-69
2022/05/01 08:53:58;;;;;;;5.38;2.97;;;;;;;21.60;59.89;100624.63;5032658;28;20061;-68
2022/05/01 08:56:24;;;;;;;3.35;2.70;;;;;;;20.91;61.14;100574.66;5031334;28;20418;-68
2022/05/01 08:58:50;;;;;;;5.45;3.22;;;;;;;21.75;58.04;100602.13;5032723;28;20240;-69
2022/05/01 09:01:17;;;;;;;4.28;2.60;;;;;;;21.90;58.40;100612.38;5031213;28;20392;-69
2022/05/01 09:03:44;;;;;;;5.68;2.75;;;;;;;20.42;58.63;100543.97;5032679;28;20604;-68
2022/05/01 09:06:10;;;;;;;4.78;3.20;;;;;;;20.46;59.24;100594.56;5032369;28;20480;-69
2022/05/01 09:08:40;;;;;;;4.80;3.40;;;;;;;21.61;58.53;100613.34;5032586;28;20073;-68
2022/05/01 09:13:49;;;;;;;4.53;3.60;;;;;;;21.24;60.79;100570.84;5032306;28;20040;-69
2022/05/01 09:16:15;;;;;;;8.05;3.53;;;;;;;21.69;60.01;100567.09;5032329;28;20033;-70
2022/05/01 09:18:45;;;;;;;4.38;3.20;;;;;;;20.76;63.66;100622.91;5032724;28;20039;-69
2022/05/01 09:21:11;;;;;;;3.03;2.72;;;;;;;20.71;62.49;100553.44;5032018;28;20484;-69
2022/05/01 09:23:47;;;;;;;3.33;3.00;;;;;;;21.42;62.08;100561.09;5032385;28;20033;-69
2022/05/01 09:26:14;;;;;;;6.78;3.75;;;;;;;21.63;61.87;100592.56;5064008;28;20618;-69
2022/05/01 09:28:54;;;;;;;4.82;3.50;;;;;;;21.15;63.20;100617.16;5032053;28;20049;-69
2022/05/01 09:31:48;;;;;;;3.40;3.10;;;;;;;22.13;62.20;100590.97;5029821;28;20025;-69
2022/05/01 09:34:25;;;;;;;5.30;2.80;;;;;;;20.98;62.63;100602.63;5032151;28;20036;-69
2022/05/01 09:36:51;;;;;;;4.00;2.85;;;;;;;21.16;63.16;100592.94;5032097;28;20049;-69
2022/05/01 09:39:22;;;;;;;5.35;3.58;;;;;;;21.69;60.27;100595.56;5031993;28;20060;-69
2022/05/01 09:41:49;;;;;;;7.30;4.10;;;;;;;22.41;60.01;100536.38;5031987;28;20060;-69
2022/05/01 09:44:16;;;;;;;8.05;3.65;;;;;;;21.61;59.77;100527.91;5031498;28;20132;-69
2022/05/01 09:46:44;;;;;;;9.15;4.03;;;;;;;21.22;59.95;100538.22;5030382;28;20034;-69
2022/05/01 09:49:13;;;;;;;3.30;2.75;;;;;;;21.68;60.05;100585.31;5031644;28;20049;-69
2022/05/01 09:51:46;;;;;;;10.60;5.05;;;;;;;21.72;60.16;100551.38;5031716;28;20487;-70
2022/05/01 09:54:31;;;;;;;4.18;3.55;;;;;;;22.37;58.71;100575.56;5030199;28;20084;-69
2022/05/01 09:56:58;;;;;;;4.03;3.25;;;;;;;22.97;57.38;100570.56;5031170;28;20049;-70
2022/05/01 09:59:26;;;;;;;8.13;3.15;;;;;;;22.39;60.54;100563.31;5031668;28;20033;-69
2022/05/01 10:02:00;;;;;;;4.90;3.00;;;;;;;21.11;62.48;100556.19;5031292;28;20470;-69
2022/05/01 10:04:25;;;;;;;4.88;3.10;;;;;;;21.21;63.42;100568.47;5038151;28;20029;-68
2022/05/01 10:06:55;;;;;;;4.15;2.83;;;;;;;20.19;65.29;100512.69;5051190;28;20415;-67
2022/05/01 10:09:23;;;;;;;6.38;4.38;;;;;;;20.52;64.62;100506.34;5049682;28;20127;-67
2022/05/01 10:11:53;;;;;;;8.63;4.65;;;;;;;20.19;64.56;100570.34;5042088;28;20029;-66
2022/05/01 10:14:20;;;;;;;5.18;2.80;;;;;;;20.27;65.86;100552.66;5051183;28;20589;-66
2022/05/01 10:16:46;;;;;;;4.53;2.97;;;;;;;20.91;66.16;100554.81;5051099;28;20040;-67
2022/05/01 10:19:18;;;;;;;4.70;3.22;;;;;;;20.01;66.34;100552.44;5050843;28;20021;-67
2022/05/01 10:21:48;;;;;;;;;;;;;;;19.99;67.86;100562.03;5045992;28;20025;-67
2022/05/01 10:24:17;;;;;;;3.10;2.80;;;;;;;20.14;66.71;100501.78;5044795;28;19913;-67
2022/05/01 10:26:54;;;;;;;7.13;5.43;;;;;;;20.21;66.72;100544.41;5050383;28;20105;-68
2022/05/01 10:32:20;;;;;;;3.20;2.90;;;;;;;20.34;65.45;100545.38;5050556;28;20573;-67
2022/05/01 10:32:49;;;;;;;6.75;4.13;;;;;;;20.33;65.74;100505.78;5050603;28;20295;-67
2022/05/01 10:35:46;;;;;;;2.75;2.55;;;;;;;20.17;67.99;100538.56;5050725;28;20048;-67
2022/05/01 10:38:17;;;;;;;4.20;2.83;;;;;;;19.64;69.03;100543.41;5050242;28;20130;-65
2022/05/01 10:40:46;;;;;;;3.35;2.88;;;;;;;19.33;71.83;100489.28;5049036;28;20032;-67
2022/05/01 10:43:33;;;;;;;3.72;2.90;;;;;;;19.91;72.23;100536.66;5050556;28;20037;-65
2022/05/01 10:46:21;;;;;;;6.22;3.60;;;;;;;20.04;71.91;100529.06;5050818;28;20086;-65
2022/05/01 10:48:48;;;;;;;6.47;2.88;;;;;;;19.65;70.98;100503.75;5048556;28;20521;-65
2022/05/01 10:51:31;;;;;;;4.32;2.83;;;;;;;19.57;70.85;100529.19;5050709;28;20039;-65
2022/05/01 10:54:13;;;;;;;5.22;3.40;;;;;;;19.44;69.83;100525.63;5048831;28;20144;-67
2022/05/01 10:56:43;;;;;;;11.75;4.03;;;;;;;19.60;70.67;100511.78;5050492;28;20360;-66
2022/05/01 10:59:39;;;;;;;11.15;6.28;;;;;;;19.43;72.85;100521.38;5050377;28;20419;-65
2022/05/01 11:02:07;;;;;;;5.20;3.88;;;;;;;19.18;74.61;100433.38;5050158;28;20384;-68
2022/05/01 11:04:38;;;;;;;7.70;3.42;;;;;;;19.68;74.42;100521.66;5048963;28;20063;-68
2022/05/01 11:07:05;;;;;;;10.00;3.55;;;;;;;20.06;74.30;100512.56;5048878;28;20072;-68
2022/05/01 11:09:35;;;;;;;3.67;2.80;;;;;;;19.30;72.81;100461.88;5050221;28;20087;-68
2022/05/01 11:12:01;;;;;;;11.55;3.60;;;;;;;19.64;75.58;100520.19;5050474;28;20033;-65
2022/05/01 11:14:53;;;;;;;13.57;4.38;;;;;;;19.26;77.61;100518.84;5048766;28;20460;-65
2022/05/01 11:17:27;;;;;;;10.25;3.45;;;;;;;19.26;81.09;100521.44;5049993;28;20029;-67
2022/05/01 11:19:53;;;;;;;10.68;3.05;;;;;;;19.27;81.34;100510.22;5050336;28;20029;-67
2022/05/01 11:22:26;;;;;;;12.32;3.35;;;;;;;19.00;79.75;100469.56;5049850;28;20036;-65
2022/05/01 11:24:51;;;;;;;13.15;3.13;;;;;;;19.32;79.89;100503.06;5050161;28;20120;-65
2022/05/01 11:27:18;;;;;;;8.57;2.78;;;;;;;19.20;77.60;100457.31;5050134;28;20111;-66
2022/05/01 11:30:22;;;;;;;3.80;2.67;;;;;;;19.18;78.07;100505.56;5050088;28;20032;-66
2022/05/01 11:32:58;;;;;;;6.35;2.75;;;;;;;19.29;79.23;100503.25;5048674;28;20029;-66
2022/05/01 11:35:56;;;;;;;7.13;2.95;;;;;;;19.09;77.47;100506.91;5050196;28;20115;-66
2022/05/01 11:38:49;;;;;;;3.30;2.70;;;;;;;19.11;79.77;100499.09;5039739;28;20067;-67
2022/05/01 11:41:15;;;;;;;2.95;2.60;;;;;;;19.23;80.79;100488.09;5040278;28;20491;-66
2022/05/01 11:43:41;;;;;;;3.90;2.63;;;;;;;18.93;81.69;100439.91;5029820;28;20029;-67
2022/05/01 11:46:17;;;;;;;2.70;2.50;;;;;;;18.97;81.54;100479.22;5030320;28;20142;-66
2022/05/01 11:48:42;;;;;;;3.00;2.65;;;;;;;18.91;81.03;100490.69;4688177;28;9999803;-66
2022/05/01 11:51:09;;;;;;;2.80;2.47;;;;;;;18.80;80.47;100454.34;5045240;28;20033;-65
2022/05/01 11:53:38;;;;;;;4.18;2.75;;;;;;;18.51;82.92;100390.69;5047488;28;20533;-65
2022/05/01 12:04:38;;;;;;;3.95;2.70;;;;;;;18.67;76.42;100357.22;5050327;28;20098;-66
2022/05/01 12:07:08;;;;;;;5.72;2.72;;;;;;;18.78;76.85;100422.69;5049786;28;20049;-67
2022/05/01 12:09:37;;;;;;;3.30;3.00;;;;;;;18.98;75.90;100455.94;5049760;28;20491;-66
2022/05/01 12:12:06;;;;;;;3.90;2.65;;;;;;;18.60;79.77;100395.34;5049434;28;20025;-67
2022/05/01 12:14:33;;;;;;;3.65;2.88;;;;;;;18.81;80.65;100412.22;5048725;28;20429;-69
2022/05/01 12:16:58;;;;;;;5.30;2.63;;;;;;;19.35;78.28;100456.50;5048528;28;20044;-66
2022/05/01 12:19:38;;;;;;;3.67;3.00;;;;;;;18.74;77.67;100386.84;5049806;28;20033;-67
2022/05/01 12:22:08;;;;;;;2.88;2.40;;;;;;;18.88;77.80;100397.25;5048121;28;20501;-67
2022/05/01 12:24:35;;;;;;;3.75;2.83;;;;;;;18.90;77.97;100360.16;5049379;28;20033;-66
2022/05/01 12:27:01;;;;;;;4.10;2.40;;;;;;;18.82;78.44;100462.00;5049304;28;20040;-65
2022/05/01 12:29:29;;;;;;;5.78;2.90;;;;;;;19.18;75.64;100444.50;5049511;28;20025;-66
2022/05/01 12:31:57;;;;;;;3.95;2.90;;;;;;;19.42;73.79;100457.81;5050148;28;20039;-66
2022/05/01 12:34:24;;;;;;;3.97;3.03;;;;;;;18.78;80.24;100427.00;5049378;28;20517;-65
2022/05/01 12:37:01;;;;;;;5.18;3.58;;;;;;;18.57;88.49;100382.66;5049122;28;20032;-66
2022/05/01 12:39:27;;;;;;;9.23;3.90;;;;;;;18.67;91.76;100390.69;5049284;28;20033;-66
2022/05/01 12:45:07;;;;;;;5.53;3.90;;;;;;;18.87;97.12;100436.81;5049225;28;20059;-69
2022/05/01 12:47:33;;;;;;;6.43;3.70;;;;;;;18.16;99.44;100394.28;5047212;28;20071;-66
2022/05/01 12:50:00;;;;;;;5.22;3.38;;;;;;;18.47;98.22;100368.59;5067521;28;20040;-64
2022/05/01 12:52:38;;;;;;;6.50;3.67;;;;;;;18.13;98.59;100337.81;5069252;28;20056;-65
2022/05/01 12:55:08;;;;;;;10.80;3.78;;;;;;;18.43;100.00;100416.03;5069314;28;20021;-65
2022/05/01 12:57:35;;;;;;;49.65;5.97;;;;;;;19.01;99.65;100427.41;5067947;28;20036;-65
2022/05/01 13:00:01;;;;;;;7.65;3.70;;;;;;;18.54;100.00;100444.59;5068276;28;20032;-65
2022/05/01 13:02:27;;;;;;;4.57;3.45;;;;;;;17.85;100.00;100340.16;5068670;28;20126;-65
2022/05/01 13:04:57;;;;;;;6.93;3.53;;;;;;;18.77;100.00;100427.94;5068926;28;20028;-65
2022/05/01 13:07:35;;;;;;;5.03;3.70;;;;;;;18.82;100.00;100420.75;5069053;28;20056;-66
2022/05/01 13:10:04;;;;;;;4.82;3.53;;;;;;;18.60;100.00;100421.09;5068717;28;20041;-65
2022/05/01 13:12:31;;;;;;;5.20;3.78;;;;;;;18.15;100.00;100357.41;5068342;28;20500;-65
2022/05/01 13:15:04;;;;;;;7.57;4.25;;;;;;;18.63;100.00;100404.66;5068541;28;20505;-65
2022/05/01 13:17:32;;;;;;;13.60;4.13;;;;;;;18.24;100.00;100350.13;5062006;28;20119;-64
2022/05/01 13:19:58;;;;;;;9.65;4.00;;;;;;;18.44;100.00;100355.88;5047293;28;20509;-65
2022/05/01 13:22:24;;;;;;;11.25;3.90;;;;;;;18.56;100.00;100399.00;5047464;28;20035;-64
2022/05/01 13:24:52;;;;;;;4.35;3.50;;;;;;;18.64;100.00;100406.34;5046899;28;20024;-64
2022/05/01 13:27:19;;;;;;;5.55;3.58;;;;;;;18.64;100.00;100409.72;5046559;28;20485;-65
2022/05/01 13:29:45;;;;;;;5.45;3.83;;;;;;;19.10;100.00;100395.13;5048726;28;20094;-64
2022/05/01 13:32:11;;;;;;;7.00;3.65;;;;;;;18.71;100.00;100362.13;5048329;28;20487;-65
2022/05/01 13:34:42;;;;;;;6.38;3.75;;;;;;;19.13;100.00;100387.25;5048224;28;20155;-66
2022/05/01 13:37:08;;;;;;;6.88;3.80;;;;;;;18.50;100.00;100293.75;5046816;28;20017;-64
2022/05/01 13:45:02;;;;;;;4.10;3.53;;;;;;;18.94;96.03;100353.09;5048336;28;20343;-66
2022/05/01 13:47:28;;;;;;;9.70;4.13;;;;;;;19.44;95.73;100376.84;5046852;28;20036;-65
2022/05/01 13:49:55;;;;;;;7.88;3.70;;;;;;;18.83;95.21;100312.50;5065357;28;20043;-65
2022/05/01 13:52:21;;;;;;;6.35;3.70;;;;;;;18.80;94.77;100314.38;5067968;28;20071;-65
2022/05/01 13:54:48;;;;;;;7.55;3.60;;;;;;;19.30;92.84;100381.94;5067844;28;20068;-65
2022/05/01 13:57:14;;;;;;;7.57;3.38;;;;;;;19.21;92.95;100379.91;5067779;28;20032;-66
2022/05/01 13:59:39;;;;;;;3.65;3.13;;;;;;;18.73;91.78;100338.84;5066370;28;20418;-66
2022/05/01 14:02:06;;;;;;;4.28;3.10;;;;;;;19.23;93.91;100370.34;5067984;28;20035;-66
2022/05/01 14:04:31;;;;;;;4.75;4.10;;;;;;;19.47;91.53;100376.66;5066445;28;20044;-66
2022/05/01 14:06:57;;;;;;;5.20;3.55;;;;;;;19.32;90.81;100353.50;5067601;28;20063;-66
2022/05/01 14:09:23;;;;;;;4.97;3.40;;;;;;;19.00;91.88;100312.34;5067419;28;20538;-66
2022/05/01 14:11:54;;;;;;;4.28;3.30;;;;;;;19.12;91.71;100320.28;5066953;28;20028;-66
2022/05/01 14:14:20;;;;;;;5.57;3.37;;;;;;;19.29;87.83;100370.00;5067790;28;20029;-66
2022/05/01 14:16:46;;;;;;;3.78;2.88;;;;;;;19.66;85.31;100372.13;5065535;28;20710;-66
2022/05/01 14:19:24;;;;;;;6.85;3.45;;;;;;;19.61;84.82;100324.28;5067253;28;20043;-66
2022/05/01 14:21:50;;;;;;;7.75;3.60;;;;;;;19.79;84.85;100308.50;5067643;28;20021;-66
2022/05/01 14:24:16;;;;;;;5.07;3.00;;;;;;;18.94;83.48;100330.72;5066566;28;20141;-66
2022/05/01 14:26:42;;;;;;;3.65;3.00;;;;;;;19.34;83.45;100368.00;5067326;28;20040;-66
2022/05/01 14:29:08;;;;;;;6.07;3.22;;;;;;;19.43;80.85;100356.31;5067746;28;20042;-66
2022/05/01 14:31:41;;;;;;;4.43;3.30;;;;;;;19.29;83.09;100351.94;5067330;28;20032;-66
2022/05/01 14:34:15;;;;;;;7.13;3.40;;;;;;;18.58;88.38;100340.50;5067237;28;20039;-66
2022/05/01 14:36:43;;;;;;;4.30;3.00;;;;;;;18.25;95.13;100375.78;5066620;28;20039;-66
2022/05/01 14:39:13;;;;;;;4.60;3.20;;;;;;;18.41;97.21;100332.00;5065880;28;20086;-66
2022/05/01 14:41:52;;;;;;;3.80;3.00;;;;;;;18.74;99.50;100385.13;5067045;28;20094;-67
2022/05/01 14:44:46;;;;;;;4.70;2.97;;;;;;;18.48;98.56;100392.63;5067036;28;20554;-66
2022/05/01 14:47:18;;;;;;;5.18;3.03;;;;;;;17.71;100.00;100338.31;5051661;28;20526;-64
2022/05/01 14:49:46;;;;;;;4.20;2.90;;;;;;;17.85;100.00;100368.47;5050354;28;20159;-64
2022/05/01 14:52:13;;;;;;;6.72;2.70;;;;;;;17.94;100.00;100393.75;5032795;28;20451;-67
2022/05/01 14:54:42;;;;;;;6.10;2.88;;;;;;;17.66;100.00;100348.00;5030444;28;20033;-67
2022/05/01 14:57:10;;;;;;;7.90;3.40;;;;;;;18.05;100.00;100409.44;5030357;28;20032;-67
2022/05/01 15:08:15;;;;;;;9.63;3.33;;;;;;;17.23;100.00;100358.75;5037053;28;20055;-65
2022/05/01 15:10:43;;;;;;;4.35;3.53;;;;;;;17.74;100.00;100407.63;5050259;28;20033;-64
2022/05/01 15:13:10;;;;;;;8.07;3.60;;;;;;;17.50;100.00;100406.25;5050156;28;20032;-65
2022/05/01 15:15:48;;;;;;;6.70;3.60;;;;;;;17.22;100.00;100408.47;5049990;28;20114;-65
2022/05/01 15:18:19;;;;;;;9.63;3.92;;;;;;;17.03;100.00;100366.59;5050483;28;20032;-68
2022/05/01 15:20:50;;;;;;;7.47;4.32;;;;;;;16.81;100.00;100337.69;5050362;28;20033;-66
2022/05/01 15:23:34;;;;;;;8.00;3.95;;;;;;;17.08;100.00;100400.59;5050174;28;20033;-66
2022/05/01 15:26:01;;;;;;;6.05;4.22;;;;;;;16.85;100.00;100394.00;5050043;28;20029;-66
2022/05/01 15:28:29;;;;;;;5.63;3.90;;;;;;;16.52;100.00;100344.19;5051543;28;20052;-66
2022/05/01 15:30:54;;;;;;;5.43;3.88;;;;;;;16.46;100.00;100335.00;5054061;28;20698;-67
2022/05/01 15:36:31;;;;;;;5.82;4.10;;;;;;;16.96;100.00;100391.75;5054318;28;20091;-67
2022/05/01 15:39:05;;;;;;;5.18;4.03;;;;;;;16.76;100.00;100370.44;5052368;28;20044;-65
2022/05/01 15:41:47;;;;;;;4.28;3.88;;;;;;;16.49;100.00;100326.38;5054076;28;20040;-66
2022/05/01 15:44:14;;;;;;;6.93;4.15;;;;;;;16.97;100.00;100372.88;5053850;28;20483;-65
2022/05/01 15:46:57;;;;;;;7.47;4.30;;;;;;;17.13;100.00;100396.09;5052709;28;20458;-66
2022/05/01 15:55:04;;;;;;;5.25;4.10;;;;;;;16.48;100.00;100388.84;5053709;28;20036;-66
2022/05/01 15:57:32;;;;;;;6.60;3.97;;;;;;;15.96;100.00;100289.47;5052621;28;20033;-66
2022/05/01 16:00:11;;;;;;;6.05;3.92;;;;;;;16.56;100.00;100352.59;5053717;28;20033;-66
2022/05/01 16:02:38;;;;;;;5.05;3.45;;;;;;;16.44;100.00;100395.84;5052591;28;20121;-68
2022/05/01 16:05:04;;;;;;;4.95;3.70;;;;;;;15.97;100.00;100309.09;5053607;28;20086;-66
2022/05/01 16:07:50;;;;;;;7.72;3.72;;;;;;;16.29;100.00;100385.44;5053408;28;20427;-66
2022/05/01 16:10:21;;;;;;;4.40;3.45;;;;;;;16.40;100.00;100385.81;5052430;28;20407;-68
2022/05/01 16:13:00;;;;;;;6.57;3.58;;;;;;;15.94;100.00;100287.00;5053539;28;20483;-66
2022/05/01 16:15:33;;;;;;;5.03;4.05;;;;;;;16.42;100.00;100400.22;5050624;28;20032;-66
2022/05/01 16:18:07;;;;;;;7.40;3.95;;;;;;;16.10;100.00;100351.25;5043120;28;20087;-66
2022/05/01 16:20:35;;;;;;;5.60;4.00;;;;;;;16.27;100.00;100407.78;5051470;28;20044;-67
2022/05/01 16:23:06;;;;;;;5.70;4.00;;;;;;;16.18;100.00;100405.63;5051836;28;20064;-67
2022/05/01 16:25:32;;;;;;;5.40;3.95;;;;;;;16.13;100.00;100399.84;5052493;28;20050;-66
2022/05/01 16:28:31;;;;;;;4.80;4.20;;;;;;;16.31;100.00;100406.75;5052979;28;20510;-66
2022/05/01 16:31:04;;;;;;;5.47;4.70;;;;;;;16.37;100.00;100409.03;5052965;28;20391;-66
2022/05/01 16:34:02;;;;;;;6.40;4.70;;;;;;;16.05;100.00;100413.00;5052916;28;20032;-66
2022/05/01 16:36:30;;;;;;;4.90;4.40;;;;;;;16.16;100.00;100404.88;5051420;28;20152;-65
2022/05/01 16:38:57;;;;;;;5.65;4.45;;;;;;;15.76;100.00;100363.88;5052169;28;20048;-65
2022/05/01 16:41:24;;;;;;;4.55;3.85;;;;;;;15.60;100.00;100350.88;5051371;28;20435;-65
2022/05/01 16:43:50;;;;;;;10.15;4.30;;;;;;;16.12;100.00;100414.41;5052778;28;20036;-65
2022/05/01 16:46:16;;;;;;;7.65;3.83;;;;;;;15.67;100.00;100354.84;5052630;28;20029;-65
2022/05/01 16:48:45;;;;;;;5.53;4.30;;;;;;;15.69;100.00;100376.13;5052707;28;20036;-65
2022/05/01 16:51:15;;;;;;;5.30;4.25;;;;;;;15.77;100.00;100381.75;5052287;28;20041;-65
2022/05/01 16:53:41;;;;;;;5.97;4.40;;;;;;;15.50;100.00;100358.13;5052350;28;20025;-65
2022/05/01 16:56:10;;;;;;;6.28;4.28;;;;;;;15.27;100.00;100365.09;5052658;28;20021;-66
2022/05/01 16:58:36;;;;;;;6.03;5.18;;;;;;;15.49;100.00;100376.13;5052595;28;20067;-66
2022/05/01 17:01:09;;;;;;;9.15;5.35;;;;;;;15.31;100.00;100376.88;5052436;28;20021;-66
2022/05/01 17:03:47;;;;;;;7.55;5.15;;;;;;;15.47;100.00;100436.84;5051207;28;20098;-65
2022/05/01 17:06:16;;;;;;;6.65;5.05;;;;;;;15.38;100.00;100432.91;5052200;28;20056;-66
2022/05/01 17:08:48;;;;;;;6.38;5.07;;;;;;;15.50;100.00;100445.28;5051007;28;20037;-65
2022/05/01 17:11:22;;;;;;;7.15;5.20;;;;;;;15.59;100.00;100444.03;5052099;28;20521;-65
2022/05/01 17:14:11;;;;;;;5.63;4.50;;;;;;;15.66;100.00;100448.03;5051776;28;20036;-66
2022/05/01 17:16:37;;;;;;;6.50;4.93;;;;;;;15.36;100.00;100450.09;5052205;28;20037;-67
2022/05/01 17:19:06;;;;;;;5.70;4.55;;;;;;;15.40;100.00;100443.09;5052301;28;20050;-67
2022/05/01 17:21:33;;;;;;;10.05;4.72;;;;;;;14.73;100.00;100335.66;5051677;28;20131;-67
2022/05/01 17:24:12;;;;;;;6.00;4.55;;;;;;;15.42;100.00;100439.63;5052228;28;20509;-66
2022/05/01 17:26:43;;;;;;;7.40;4.70;;;;;;;14.99;100.00;100372.19;5050515;28;20399;-67
2022/05/01 17:29:12;;;;;;;5.78;4.80;;;;;;;15.11;100.00;100408.41;5050670;28;20033;-67
2022/05/01 17:31:50;;;;;;;25.48;6.25;;;;;;;14.93;100.00;100342.56;5052023;28;20051;-66
2022/05/01 17:34:19;;;;;;;11.75;4.95;;;;;;;15.67;100.00;100436.06;5052109;28;20052;-67
2022/05/01 17:36:46;;;;;;;26.88;5.85;;;;;;;15.34;100.00;100390.38;5050360;28;20043;-67
2022/05/01 17:39:13;;;;;;;5.60;3.90;;;;;;;15.46;100.00;100453.13;5051748;28;20037;-66
2022/05/01 17:41:41;;;;;;;4.95;3.67;;;;;;;15.56;100.00;100447.59;5051651;28;20911;-66
2022/05/01 17:44:08;;;;;;;4.80;3.58;;;;;;;15.28;100.00;100406.00;5051576;28;20487;-67
2022/05/01 17:46:35;;;;;;;6.10;3.63;;;;;;;15.34;100.00;100415.16;5051725;28;20159;-67
2022/05/01 17:49:01;;;;;;;4.03;3.30;;;;;;;15.50;100.00;100457.25;5050423;28;20081;-68
2022/05/01 17:51:27;;;;;;;7.75;3.15;;;;;;;15.47;100.00;100460.75;5050700;28;20103;-67
2022/05/01 17:53:54;;;;;;;5.72;3.30;;;;;;;15.00;100.00;100396.91;5051524;28;20031;-66
2022/05/01 17:56:20;;;;;;;5.05;3.00;;;;;;;15.54;100.00;100454.50;5050028;28;20818;-66
2022/05/01 17:58:45;;;;;;;5.18;3.10;;;;;;;15.36;100.00;100413.38;5051446;28;20041;-67
2022/05/01 18:01:26;;;;;;;5.05;3.60;;;;;;;15.27;100.00;100476.03;5047214;28;20411;-66
2022/05/01 18:09:56;;;;;;;5.32;3.25;;;;;;;15.43;100.00;100466.91;5042471;28;20034;-67
2022/05/01 18:09:57;;;;;;;5.25;3.42;;;;;;;15.05;100.00;100421.47;5045278;28;20076;-67
2022/05/01 18:12:31;;;;;;;7.30;3.10;;;;;;;15.22;100.00;100488.22;5031328;28;20155;-66
2022/05/01 18:15:21;;;;;;;4.70;3.25;;;;;;;15.43;100.00;100484.03;5031139;28;20025;-67
2022/05/01 18:18:13;;;;;;;7.47;3.83;;;;;;;15.16;100.00;100492.72;5031367;28;20035;-67
2022/05/01 18:20:42;;;;;;;5.75;3.55;;;;;;;15.21;100.00;100480.59;5031095;28;20052;-68
2022/05/01 18:23:08;;;;;;;6.70;2.92;;;;;;;15.40;100.00;100497.75;5030944;28;20087;-68
2022/05/01 18:25:52;;;;;;;8.65;3.33;;;;;;;15.08;100.00;100505.84;5031107;28;20056;-68
2022/05/01 18:28:23;;;;;;;6.75;3.00;;;;;;;15.11;100.00;100510.00;5036117;28;20036;-67
2022/05/01 18:31:01;;;;;;;9.52;2.97;;;;;;;14.82;100.00;100494.88;5043236;28;20528;-67
2022/05/01 18:33:48;;;;;;;5.55;3.10;;;;;;;14.65;100.00;100447.75;5033472;28;20029;-68
2022/05/01 18:36:16;;;;;;;5.47;3.60;;;;;;;15.08;100.00;100502.44;5034892;28;20453;-66
2022/05/01 18:38:48;;;;;;;5.75;3.50;;;;;;;14.95;100.00;100501.25;5046494;28;20040;-68
2022/05/01 18:41:14;;;;;;;;;;;;;;;14.85;100.00;100513.56;5050870;28;20052;-68
2022/05/01 18:43:43;;;;;;;5.80;3.47;;;;;;;14.44;100.00;100440.03;5050205;28;20412;-69
2022/05/01 18:46:11;;;;;;;4.00;3.10;;;;;;;14.81;100.00;100499.19;5038976;28;20044;-68
2022/05/01 18:48:38;;;;;;;5.63;3.58;;;;;;;15.13;100.00;100515.91;5030557;28;20040;-69
2022/05/01 18:51:05;;;;;;;5.13;3.42;;;;;;;14.47;100.00;100398.94;5030344;28;20036;-68
2022/05/01 18:53:32;;;;;;;5.72;3.90;;;;;;;14.80;100.00;100505.19;4685849;28;10000296;-66
2022/05/01 18:55:59;;;;;;;6.95;4.05;;;;;;;14.74;100.00;100513.94;5045404;28;20036;-67
2022/05/01 18:58:26;;;;;;;7.97;3.78;;;;;;;15.13;100.00;100521.03;5045495;28;20090;-66
2022/05/01 19:00:55;;;;;;;8.93;4.30;;;;;;;14.70;100.00;100519.22;5046340;28;20067;-64
2022/05/01 19:03:24;;;;;;;7.25;4.07;;;;;;;14.84;100.00;100499.06;5042355;28;20029;-65
2022/05/01 19:06:15;;;;;;;7.18;3.95;;;;;;;14.58;100.00;100494.91;5044208;28;20036;-67
2022/05/01 19:08:57;;;;;;;5.40;3.63;;;;;;;14.91;100.00;100528.69;5046944;28;20068;-66
2022/05/01 19:11:26;;;;;;;6.03;3.80;;;;;;;14.81;100.00;100524.78;5047130;28;20618;-67
2022/05/01 19:14:06;;;;;;;5.63;3.65;;;;;;;14.66;100.00;100497.19;5045285;28;20425;-66
2022/05/01 19:16:48;;;;;;;5.40;3.67;;;;;;;14.89;100.00;100509.16;5047475;28;20097;-66
2022/05/01 19:19:23;;;;;;;5.57;3.50;;;;;;;14.61;100.00;100529.78;5046044;28;20056;-67
2022/05/01 19:21:48;;;;;;;7.38;4.07;;;;;;;14.61;100.00;100525.50;5047560;28;20037;-67
2022/05/01 19:27:26;;;;;;;5.00;3.63;;;;;;;14.26;100.00;100459.34;5046526;28;20152;-66
2022/05/01 19:30:00;;;;;;;7.22;3.83;;;;;;;14.31;100.00;100533.41;5039592;28;20040;-66
2022/05/01 19:32:33;;;;;;;7.93;3.88;;;;;;;14.22;100.00;100480.00;5032028;28;20037;-66
2022/05/01 19:35:36;;;;;;;7.95;4.07;;;;;;;14.43;100.00;100543.22;5027074;28;20029;-66